createdAt,value
2022-10-31T00:00:49.932Z,11.1
2022-10-31T00:02:50.007Z,11.1
2022-10-31T00:04:50.098Z,11.6
2022-10-31T00:06:49.951Z,11.6
2022-10-31T00:08:50.298Z,12.1
2022-10-31T00:10:50.630Z,12.0
2022-10-31T00:12:50.045Z,11.2
2022-10-31T00:14:50.408Z,11.2
2022-10-31T00:16:50.174Z,12.0
2022-10-31T00:18:50.492Z,11.3
2022-10-31T00:20:49.794Z,11.3
2022-10-31T00:22:50.248Z,11.7
2022-10-31T00:24:50.546Z,11.4
2022-10-31T00:26:50.367Z,11.1
2022-10-31T00:28:49.821Z,10.2
2022-10-31T00:30:50.245Z,10.2
2022-10-31T00:32:49.780Z,11.5
2022-10-31T00:34:49.804Z,11.3
2022-10-31T00:36:50.597Z,11.8
2022-10-31T00:38:49.989Z,11.0
2022-10-31T00:40:50.396Z,11.0
2022-10-31T00:42:49.969Z,11.1
2022-10-31T00:44:50.623Z,11.1
2022-10-31T00:46:50.495Z,11.5
2022-10-31T00:48:49.960Z,11.1
2022-10-31T00:50:50.254Z,11.1
2022-10-31T00:52:49.801Z,11.5
2022-10-31T00:54:50.184Z,12.0
2022-10-31T00:56:50.000Z,11.7
2022-10-31T00:58:50.459Z,11.5
2022-10-31T01:00:52.084Z,11.5
2022-10-31T01:02:49.947Z,11.4
2022-10-31T01:04:49.981Z,11.4
2022-10-31T01:06:49.832Z,11.4
2022-10-31T01:08:50.259Z,11.2
2022-10-31T01:10:50.633Z,11.7
2022-10-31T01:12:50.127Z,11.1
2022-10-31T01:14:50.518Z,11.0
2022-10-31T01:16:50.253Z,11.0
2022-10-31T01:18:50.673Z,11.1
2022-10-31T01:20:50.056Z,11.1
2022-10-31T01:22:49.669Z,10.7
2022-10-31T01:24:50.308Z,11.5
2022-10-31T01:26:50.154Z,11.5
2022-10-31T01:28:49.691Z,11.0
2022-10-31T01:30:50.299Z,11.0
2022-10-31T01:32:50.211Z,11.1
2022-10-31T01:34:50.245Z,10.7
2022-10-31T01:36:50.115Z,11.4
2022-10-31T01:38:50.567Z,11.4
2022-10-31T01:40:50.139Z,11.4
2022-10-31T01:42:50.655Z,10.5
2022-10-31T01:44:50.284Z,10.1
2022-10-31T01:46:50.118Z,10.1
2022-10-31T01:48:50.673Z,10.8
2022-10-31T01:50:50.207Z,10.8
2022-10-31T01:52:49.763Z,11.6
2022-10-31T01:54:50.079Z,12.0
2022-10-31T01:56:49.885Z,12.0
2022-10-31T01:58:50.409Z,11.0
2022-10-31T02:00:50.164Z,11.0
2022-10-31T02:02:49.962Z,11.0
2022-10-31T02:04:50.477Z,13.1
2022-10-31T02:06:50.267Z,13.1
2022-10-31T02:08:50.120Z,15.0
2022-10-31T02:10:50.584Z,15.0
2022-10-31T02:12:50.025Z,14.8
2022-10-31T02:14:50.463Z,14.8
2022-10-31T02:16:50.213Z,14.1
2022-10-31T02:18:49.771Z,14.1
2022-10-31T02:20:50.233Z,14.1
2022-10-31T02:22:49.737Z,14.3
2022-10-31T02:24:50.163Z,13.4
2022-10-31T02:26:49.982Z,14.4
2022-10-31T02:28:50.479Z,14.4
2022-10-31T02:30:49.906Z,14.5
2022-10-31T02:32:50.407Z,14.5
2022-10-31T02:34:50.171Z,14.2
2022-10-31T02:36:50.106Z,14.2
2022-10-31T02:38:50.598Z,14.7
2022-10-31T02:40:50.082Z,13.7
2022-10-31T02:42:50.570Z,14.7
2022-10-31T02:44:49.936Z,15.0
2022-10-31T02:46:49.679Z,15.0
2022-10-31T02:48:50.215Z,15.1
2022-10-31T02:50:50.626Z,15.2
2022-10-31T02:52:49.987Z,15.0
2022-10-31T02:54:50.481Z,15.9
2022-10-31T02:56:50.257Z,15.9
2022-10-31T02:58:49.749Z,16.5
2022-10-31T03:00:52.397Z,15.7
2022-10-31T03:02:50.426Z,17.0
2022-10-31T03:04:50.120Z,17.0
2022-10-31T03:06:49.878Z,17.0
2022-10-31T03:08:50.054Z,16.1
2022-10-31T03:10:50.409Z,16.4
2022-10-31T03:12:49.842Z,15.0
2022-10-31T03:14:50.191Z,15.0
2022-10-31T03:16:49.993Z,15.5
2022-10-31T03:18:50.370Z,14.2
2022-10-31T03:20:49.669Z,13.7
2022-10-31T03:22:50.253Z,14.0
2022-10-31T03:24:50.619Z,14.0
2022-10-31T03:26:50.396Z,13.6
2022-10-31T03:28:49.819Z,14.1
2022-10-31T03:30:50.130Z,13.2
2022-10-31T03:32:50.605Z,13.3
2022-10-31T03:34:50.441Z,13.5
2022-10-31T03:36:50.220Z,13.5
2022-10-31T03:38:50.560Z,13.8
2022-10-31T03:40:49.869Z,13.4
2022-10-31T03:42:50.316Z,12.9
2022-10-31T03:44:49.728Z,12.9
2022-10-31T03:46:50.381Z,14.1
2022-10-31T03:48:49.854Z,12.6
2022-10-31T03:50:50.186Z,14.2
2022-10-31T03:52:50.633Z,14.2
2022-10-31T03:54:49.910Z,13.2
2022-10-31T03:56:50.528Z,13.4
2022-10-31T03:58:50.024Z,13.1
2022-10-31T04:00:50.421Z,13.1
2022-10-31T04:02:49.909Z,12.5
2022-10-31T04:04:49.811Z,12.5
2022-10-31T04:06:50.521Z,12.5
2022-10-31T04:08:50.013Z,12.6
2022-10-31T04:10:50.355Z,12.6
2022-10-31T04:12:49.840Z,12.6
2022-10-31T04:14:50.193Z,12.6
2022-10-31T04:16:49.900Z,11.4
2022-10-31T04:18:50.259Z,12.5
2022-10-31T04:20:50.612Z,12.5
2022-10-31T04:22:50.025Z,11.8
2022-10-31T04:24:50.410Z,11.8
2022-10-31T04:26:50.096Z,12.1
2022-10-31T04:28:50.594Z,11.5
2022-10-31T04:30:50.018Z,12.5
2022-10-31T04:32:50.397Z,12.5
2022-10-31T04:34:50.324Z,13.1
2022-10-31T04:36:50.121Z,13.5
2022-10-31T04:38:50.491Z,13.5
2022-10-31T04:40:49.853Z,13.6
2022-10-31T04:42:50.302Z,13.6
2022-10-31T04:44:50.755Z,13.9
2022-10-31T04:46:50.527Z,13.9
2022-10-31T04:48:49.892Z,14.4
2022-10-31T04:50:50.230Z,13.1
2022-10-31T04:52:50.691Z,13.1
2022-10-31T04:54:50.027Z,12.4
2022-10-31T04:56:50.661Z,11.5
2022-10-31T04:58:50.179Z,12.2
2022-10-31T05:00:50.706Z,12.2
2022-10-31T05:02:50.399Z,12.2
2022-10-31T05:04:50.234Z,11.5
2022-10-31T05:06:50.027Z,12.6
2022-10-31T05:08:50.491Z,11.7
2022-10-31T05:10:49.874Z,11.7
2022-10-31T05:12:50.356Z,12.0
2022-10-31T05:14:49.734Z,12.9
2022-10-31T05:16:50.517Z,12.2
2022-10-31T05:18:49.970Z,12.2
2022-10-31T05:20:50.450Z,12.3
2022-10-31T05:22:49.921Z,12.6
2022-10-31T05:24:50.253Z,12.4
2022-10-31T05:26:49.965Z,12.8
2022-10-31T05:28:50.408Z,13.0
2022-10-31T05:30:49.780Z,13.0
2022-10-31T05:32:50.129Z,13.0
2022-10-31T05:34:49.941Z,12.9
2022-10-31T05:36:50.521Z,13.3
2022-10-31T05:38:49.959Z,13.3
2022-10-31T05:40:50.345Z,13.2
2022-10-31T05:42:49.856Z,14.0
2022-10-31T05:44:50.296Z,13.9
2022-10-31T05:46:49.903Z,13.9
2022-10-31T05:48:50.375Z,13.6
2022-10-31T05:50:49.714Z,13.6
2022-10-31T05:52:50.032Z,13.7
2022-10-31T05:54:50.515Z,13.7
2022-10-31T05:56:50.203Z,13.7
2022-10-31T05:58:49.678Z,13.6
2022-10-31T06:00:49.943Z,13.5
2022-10-31T06:02:50.218Z,13.5
2022-10-31T06:04:50.036Z,13.0
2022-10-31T06:06:50.348Z,13.4
2022-10-31T06:08:49.726Z,13.4
2022-10-31T06:10:50.078Z,13.3
2022-10-31T06:12:50.434Z,12.6
2022-10-31T06:14:49.925Z,13.4
2022-10-31T06:16:49.750Z,13.4
2022-10-31T06:18:50.257Z,13.4
2022-10-31T06:20:50.560Z,13.0
2022-10-31T06:22:49.926Z,13.3
2022-10-31T06:24:50.394Z,12.5
2022-10-31T06:26:50.074Z,12.5
2022-10-31T06:28:50.394Z,13.7
2022-10-31T06:30:49.844Z,13.5
2022-10-31T06:32:50.288Z,13.3
2022-10-31T06:34:50.166Z,13.3
2022-10-31T06:36:50.013Z,13.5
2022-10-31T06:38:50.492Z,13.5
2022-10-31T06:40:49.865Z,13.5
2022-10-31T06:42:50.149Z,13.0
2022-10-31T06:44:49.716Z,13.0
2022-10-31T06:46:50.456Z,13.0
2022-10-31T06:48:49.894Z,13.0
2022-10-31T06:50:50.202Z,12.8
2022-10-31T06:52:50.541Z,12.4
2022-10-31T06:54:49.925Z,12.0
2022-10-31T06:56:50.690Z,12.0
2022-10-31T06:58:50.140Z,10.8
2022-10-31T07:00:50.543Z,10.7
2022-10-31T07:02:50.007Z,9.9
2022-10-31T07:04:50.017Z,10.6
2022-10-31T07:06:52.176Z,10.6
2022-10-31T07:08:49.719Z,10.4
2022-10-31T07:10:50.028Z,10.6
2022-10-31T07:12:50.388Z,30.0
2022-10-31T07:14:49.803Z,30.0
2022-10-31T07:16:50.634Z,39.3
2022-10-31T07:18:50.099Z,41.4
2022-10-31T07:20:50.531Z,41.4
2022-10-31T07:22:51.025Z,36.1
2022-10-31T07:24:50.479Z,36.1
2022-10-31T07:26:50.389Z,33.2
2022-10-31T07:28:49.982Z,30.8
2022-10-31T07:30:50.456Z,27.3
2022-10-31T07:32:49.827Z,27.3
2022-10-31T07:34:49.757Z,25.6
2022-10-31T07:36:50.394Z,21.7
2022-10-31T07:38:49.805Z,22.1
2022-10-31T07:40:50.255Z,12.4
2022-10-31T07:42:49.702Z,12.8
2022-10-31T07:44:55.348Z,12.8
2022-10-31T07:46:50.495Z,13.1
2022-10-31T07:48:49.971Z,12.5
2022-10-31T07:50:50.331Z,12.4
2022-10-31T07:52:49.747Z,12.4
2022-10-31T07:54:50.307Z,12.2
2022-10-31T07:56:50.163Z,12.5
2022-10-31T07:58:50.666Z,12.1
2022-10-31T08:00:50.257Z,10.9
2022-10-31T08:02:50.323Z,10.8
2022-10-31T08:04:50.117Z,10.8
2022-10-31T08:06:49.858Z,11.7
2022-10-31T08:08:50.274Z,11.2
2022-10-31T08:10:49.823Z,10.8
2022-10-31T08:12:50.323Z,11.5
2022-10-31T08:14:49.702Z,11.5
2022-10-31T08:16:50.316Z,11.6
2022-10-31T08:18:49.760Z,10.5
2022-10-31T08:20:50.118Z,10.5
2022-10-31T08:22:49.398Z,9.6
2022-10-31T08:24:49.697Z,9.6
2022-10-31T08:26:50.406Z,10.0
2022-10-31T08:28:49.911Z,10.9
2022-10-31T08:30:50.313Z,10.9
2022-10-31T08:32:49.677Z,11.7
2022-10-31T08:34:50.512Z,11.7
2022-10-31T08:36:50.307Z,11.1
2022-10-31T08:38:49.719Z,10.6
2022-10-31T08:40:50.050Z,10.9
2022-10-31T08:42:50.588Z,10.9
2022-10-31T08:44:50.009Z,9.8
2022-10-31T08:46:49.732Z,10.5
2022-10-31T08:48:50.165Z,10.5
2022-10-31T08:50:50.562Z,10.2
2022-10-31T08:53:05.071Z,10.2
2022-10-31T08:54:50.535Z,10.0
2022-10-31T08:56:50.301Z,10.5
2022-10-31T08:58:49.756Z,10.5
2022-10-31T09:00:50.199Z,9.6
2022-10-31T09:02:50.145Z,9.6
2022-10-31T09:04:49.863Z,9.6
2022-10-31T09:07:19.959Z,9.9
2022-10-31T09:08:49.703Z,9.9
2022-10-31T09:10:50.014Z,9.4
2022-10-31T09:12:50.458Z,9.4
2022-10-31T09:14:49.749Z,10.0
2022-10-31T09:16:50.404Z,9.1
2022-10-31T09:18:49.806Z,8.4
2022-10-31T09:20:50.141Z,8.3
2022-10-31T09:22:50.447Z,8.3
2022-10-31T09:24:49.967Z,8.2
2022-10-31T09:26:50.629Z,8.2
2022-10-31T09:28:50.177Z,8.2
2022-10-31T09:30:50.574Z,7.7
2022-10-31T09:32:50.010Z,7.8
2022-10-31T09:34:49.894Z,7.4
2022-10-31T09:36:49.707Z,7.4
2022-10-31T09:38:50.051Z,7.3
2022-10-31T09:40:50.408Z,7.3
2022-10-31T09:42:49.849Z,7.2
2022-10-31T09:44:50.119Z,7.2
2022-10-31T09:46:50.028Z,7.0
2022-10-31T09:48:50.496Z,7.0
2022-10-31T09:50:49.923Z,6.9
2022-10-31T09:52:50.340Z,6.8
2022-10-31T09:54:49.724Z,7.2
2022-10-31T09:56:50.447Z,6.9
2022-10-31T09:58:49.787Z,7.1
2022-10-31T10:00:50.273Z,7.1
2022-10-31T10:02:50.033Z,7.2
2022-10-31T10:04:50.003Z,7.7
2022-10-31T10:06:49.768Z,7.1
2022-10-31T10:08:50.030Z,7.1
2022-10-31T10:10:50.346Z,7.1
2022-10-31T10:12:49.797Z,7.7
2022-10-31T10:14:50.160Z,7.5
2022-10-31T10:16:49.875Z,7.5
2022-10-31T10:18:50.173Z,8.3
2022-10-31T10:20:50.512Z,7.8
2022-10-31T10:22:50.003Z,7.9
2022-10-31T10:24:50.276Z,8.1
2022-10-31T10:26:49.869Z,8.1
2022-10-31T10:28:50.378Z,8.4
2022-10-31T10:30:49.818Z,8.3
2022-10-31T10:32:52.374Z,9.5
2022-10-31T10:34:50.255Z,9.5
2022-10-31T10:36:49.934Z,9.6
2022-10-31T10:38:50.204Z,9.5
2022-10-31T10:40:50.542Z,9.9
2022-10-31T10:42:50.017Z,9.7
2022-10-31T10:44:50.328Z,9.7
2022-10-31T10:46:50.073Z,9.7
2022-10-31T10:48:50.399Z,10.1
2022-10-31T10:50:49.749Z,9.9
2022-10-31T10:52:51.346Z,10.0
2022-10-31T10:54:49.682Z,10.0
2022-10-31T10:56:50.278Z,9.8
2022-10-31T10:58:49.995Z,9.8
2022-10-31T11:00:50.976Z,9.8
2022-10-31T11:02:50.112Z,9.3
2022-10-31T11:04:49.968Z,9.3
2022-10-31T11:06:50.555Z,9.6
2022-10-31T11:08:50.013Z,9.5
2022-10-31T11:10:50.366Z,9.5
2022-10-31T11:12:49.787Z,9.0
2022-10-31T11:14:50.143Z,9.0
2022-10-31T11:16:49.897Z,8.9
2022-10-31T11:18:50.194Z,8.9
2022-10-31T11:20:50.559Z,8.8
2022-10-31T11:22:50.074Z,8.8
2022-10-31T11:24:50.487Z,8.2
2022-10-31T11:26:50.397Z,8.1
2022-10-31T11:28:49.854Z,8.4
2022-10-31T11:30:50.234Z,7.5
2022-10-31T11:32:50.655Z,7.5
2022-10-31T11:34:50.436Z,7.6
2022-10-31T11:36:50.325Z,7.6
2022-10-31T11:38:49.726Z,7.4
2022-10-31T11:40:50.017Z,7.3
2022-10-31T11:42:50.505Z,7.3
2022-10-31T11:44:49.937Z,7.2
2022-10-31T11:46:49.786Z,7.2
2022-10-31T11:48:50.026Z,7.5
2022-10-31T11:50:50.416Z,7.3
2022-10-31T11:52:50.127Z,7.3
2022-10-31T11:54:50.639Z,7.3
2022-10-31T11:56:50.140Z,7.2
2022-10-31T11:58:50.522Z,7.5
2022-10-31T12:00:49.825Z,6.8
2022-10-31T12:02:50.317Z,7.1
2022-10-31T12:04:50.355Z,7.1
2022-10-31T12:06:50.080Z,7.4
2022-10-31T12:08:50.495Z,6.9
2022-10-31T12:10:49.860Z,6.5
2022-10-31T12:12:50.149Z,6.5
2022-10-31T12:14:50.595Z,6.9
2022-10-31T12:16:50.379Z,6.9
2022-10-31T12:18:49.785Z,6.7
2022-10-31T12:20:50.318Z,6.5
2022-10-31T12:22:49.705Z,6.5
2022-10-31T12:24:50.061Z,7.3
2022-10-31T12:26:49.869Z,6.7
2022-10-31T12:28:55.642Z,6.7
2022-10-31T12:30:50.130Z,6.7
2022-10-31T12:32:50.418Z,7.1
2022-10-31T12:34:50.548Z,7.1
2022-10-31T12:36:50.310Z,7.0
2022-10-31T12:38:49.733Z,7.3
2022-10-31T12:40:50.084Z,7.3
2022-10-31T12:42:50.379Z,7.0
2022-10-31T12:44:49.720Z,7.0
2022-10-31T12:46:50.447Z,7.2
2022-10-31T12:48:57.283Z,7.2
2022-10-31T12:50:49.704Z,6.2
2022-10-31T12:52:50.290Z,6.4
2022-10-31T12:54:50.607Z,6.4
2022-10-31T12:56:50.115Z,6.5
2022-10-31T12:58:50.572Z,6.5
2022-10-31T13:00:50.177Z,6.1
2022-10-31T13:02:49.760Z,6.1
2022-10-31T13:04:49.646Z,6.1
2022-10-31T13:06:50.213Z,6.7
2022-10-31T13:08:50.589Z,6.7
2022-10-31T13:10:50.338Z,6.9
2022-10-31T13:12:50.260Z,6.9
2022-10-31T13:14:49.727Z,6.9
2022-10-31T13:16:49.673Z,7.1
2022-10-31T13:18:50.106Z,6.6
2022-10-31T13:20:55.938Z,6.6
2022-10-31T13:22:50.480Z,6.8
2022-10-31T13:24:49.875Z,7.3
2022-10-31T13:26:50.606Z,7.4
2022-10-31T13:30:50.372Z,6.5
2022-10-31T13:32:49.792Z,6.4
2022-10-31T13:34:50.625Z,6.7
2022-10-31T13:36:50.312Z,7.3
2022-10-31T13:38:50.655Z,7.3
2022-10-31T13:40:50.075Z,7.7
2022-10-31T13:42:50.565Z,7.7
2022-10-31T13:44:50.053Z,7.0
2022-10-31T13:46:49.719Z,7.5
2022-10-31T13:48:50.246Z,7.5
2022-10-31T13:50:49.892Z,7.5
2022-10-31T13:52:50.387Z,7.4
2022-10-31T13:54:49.797Z,7.4
2022-10-31T13:56:50.391Z,8.0
2022-10-31T13:58:49.918Z,8.3
2022-10-31T14:00:50.350Z,8.3
2022-10-31T14:02:49.911Z,8.4
2022-10-31T14:04:50.214Z,9.2
2022-10-31T14:06:50.628Z,9.2
2022-10-31T14:08:50.333Z,9.5
2022-10-31T14:10:49.897Z,9.5
2022-10-31T14:12:50.590Z,9.5
2022-10-31T14:14:50.095Z,9.9
2022-10-31T14:16:55.785Z,9.9
2022-10-31T14:18:50.187Z,10.0
2022-10-31T14:20:50.655Z,10.0
2022-10-31T14:22:50.160Z,10.4
2022-10-31T14:24:49.918Z,10.4
2022-10-31T14:26:49.754Z,10.2
2022-10-31T14:28:50.097Z,10.2
2022-10-31T14:30:50.540Z,9.7
2022-10-31T14:32:49.836Z,10.3
2022-10-31T14:34:50.619Z,10.7
2022-10-31T14:36:50.336Z,10.3
2022-10-31T14:38:49.726Z,10.3
2022-10-31T14:42:50.431Z,10.7
2022-10-31T14:44:49.830Z,11.4
2022-10-31T14:46:50.570Z,11.4
2022-10-31T14:48:49.897Z,10.5
2022-10-31T14:50:50.204Z,11.2
2022-10-31T14:52:50.486Z,10.8
2022-10-31T14:54:49.859Z,10.8
2022-10-31T14:56:49.723Z,11.2
2022-10-31T14:58:50.231Z,11.4
2022-10-31T15:00:50.682Z,11.1
2022-10-31T15:02:50.199Z,11.2
2022-10-31T15:04:49.866Z,11.2
2022-10-31T15:06:50.563Z,11.4
2022-10-31T15:08:50.143Z,11.4
2022-10-31T15:10:50.434Z,10.8
2022-10-31T15:12:49.841Z,11.6
2022-10-31T15:14:50.302Z,11.6
2022-10-31T15:16:50.130Z,11.4
2022-10-31T15:18:50.474Z,11.4
2022-10-31T15:20:49.830Z,11.4
2022-10-31T15:22:50.130Z,11.9
2022-10-31T15:24:50.583Z,12.3
2022-10-31T15:26:50.264Z,12.3
2022-10-31T15:28:50.589Z,12.0
2022-10-31T15:30:50.178Z,12.3
2022-10-31T15:32:59.117Z,12.3
2022-10-31T15:34:50.344Z,11.7
2022-10-31T15:36:50.096Z,11.7
2022-10-31T15:38:50.460Z,11.8
2022-10-31T15:40:49.998Z,12.3
2022-10-31T15:42:50.382Z,11.8
2022-10-31T15:44:49.795Z,11.8
2022-10-31T15:46:50.695Z,12.4
2022-10-31T15:48:50.025Z,12.9
2022-10-31T15:50:50.504Z,12.7
2022-10-31T15:52:50.197Z,12.7
2022-10-31T15:54:50.478Z,12.8
2022-10-31T15:56:50.306Z,12.7
2022-10-31T15:58:49.655Z,13.4
2022-10-31T16:00:50.112Z,13.1
2022-10-31T16:02:49.718Z,13.1
2022-10-31T16:04:50.540Z,14.1
2022-10-31T16:06:50.278Z,14.0
2022-10-31T16:08:49.763Z,14.0
2022-10-31T16:10:50.103Z,15.1
2022-10-31T16:12:50.632Z,15.1
2022-10-31T16:14:50.015Z,14.2
2022-10-31T16:16:49.692Z,14.2
2022-10-31T16:18:50.154Z,15.5
2022-10-31T16:20:50.531Z,15.5
2022-10-31T16:22:50.062Z,16.0
2022-10-31T16:24:50.438Z,16.0
2022-10-31T16:26:50.150Z,15.6
2022-10-31T16:28:50.570Z,15.2
2022-10-31T16:30:49.947Z,16.6
2022-10-31T16:32:50.497Z,16.6
2022-10-31T16:34:50.567Z,15.9
2022-10-31T16:36:50.493Z,16.4
2022-10-31T16:38:49.858Z,16.6
2022-10-31T16:40:50.366Z,17.9
2022-10-31T16:42:49.811Z,17.9
2022-10-31T16:44:50.232Z,18.8
2022-10-31T16:46:49.937Z,19.2
2022-10-31T16:48:50.270Z,19.8
2022-10-31T16:50:49.722Z,19.2
2022-10-31T16:53:13.215Z,19.2
2022-10-31T16:54:50.073Z,18.1
2022-10-31T16:56:49.826Z,18.6
2022-10-31T16:58:50.169Z,17.6
2022-10-31T17:00:50.701Z,17.6
2022-10-31T17:02:50.369Z,17.4
2022-10-31T17:04:56.762Z,17.8
2022-10-31T17:06:50.151Z,19.7
2022-10-31T17:08:49.732Z,19.7
2022-10-31T17:10:50.352Z,21.2
2022-10-31T17:12:49.761Z,21.3
2022-10-31T17:14:50.423Z,21.2
2022-10-31T17:16:50.216Z,21.7
2022-10-31T17:18:49.703Z,21.7
2022-10-31T17:20:50.062Z,21.7
2022-10-31T17:22:50.583Z,21.7
2022-10-31T17:24:50.093Z,20.9
2022-10-31T17:26:50.044Z,22.4
2022-10-31T17:28:50.417Z,21.2
2022-10-31T17:30:49.895Z,21.2
2022-10-31T17:32:50.440Z,22.6
2022-10-31T17:34:50.314Z,21.8
2022-10-31T17:36:50.078Z,21.8
2022-10-31T17:38:50.551Z,22.4
2022-10-31T17:40:50.033Z,22.4
2022-10-31T17:42:50.689Z,22.2
2022-10-31T17:44:50.230Z,22.1
2022-10-31T17:46:50.068Z,22.2
2022-10-31T17:48:50.639Z,22.2
2022-10-31T17:50:50.141Z,22.3
2022-10-31T17:52:49.834Z,22.7
2022-10-31T17:54:50.381Z,22.0
2022-10-31T17:56:50.311Z,22.3
2022-10-31T17:58:49.722Z,22.3
2022-10-31T18:00:51.656Z,21.5
2022-10-31T18:02:50.510Z,20.8
2022-10-31T18:04:50.552Z,21.6
2022-10-31T18:06:50.418Z,22.8
2022-10-31T18:08:49.952Z,22.8
2022-10-31T18:10:50.568Z,23.1
2022-10-31T18:12:50.115Z,24.5
2022-10-31T18:14:50.624Z,24.5
2022-10-31T18:16:50.453Z,26.5
2022-10-31T18:18:49.972Z,26.4
2022-10-31T18:20:50.584Z,26.4
2022-10-31T18:22:50.175Z,27.7
2022-10-31T18:24:49.732Z,26.9
2022-10-31T18:26:50.608Z,27.8
2022-10-31T18:28:50.121Z,27.8
2022-10-31T18:30:49.703Z,28.0
2022-10-31T18:32:50.205Z,30.2
2022-10-31T18:34:50.129Z,26.4
2022-10-31T18:36:50.076Z,25.6
2022-10-31T18:38:50.656Z,25.6
2022-10-31T18:40:50.156Z,24.8
2022-10-31T18:42:49.700Z,24.0
2022-10-31T18:44:50.088Z,24.8
2022-10-31T18:46:49.993Z,26.6
2022-10-31T18:48:50.425Z,26.6
2022-10-31T18:50:49.997Z,25.5
2022-10-31T18:52:50.547Z,24.6
2022-10-31T18:54:49.991Z,24.4
2022-10-31T18:56:49.830Z,24.4
2022-10-31T18:58:50.290Z,23.4
2022-10-31T19:00:49.940Z,23.4
2022-10-31T19:02:49.777Z,23.3
2022-10-31T19:04:49.827Z,23.3
2022-10-31T19:06:50.591Z,23.5
2022-10-31T19:08:50.132Z,22.8
2022-10-31T19:10:50.498Z,22.5
2022-10-31T19:12:49.954Z,21.3
2022-10-31T19:14:50.580Z,21.3
2022-10-31T19:16:52.996Z,22.3
2022-10-31T19:18:50.502Z,21.3
2022-10-31T19:20:50.095Z,22.4
2022-10-31T19:22:50.531Z,22.4
2022-10-31T19:24:49.976Z,22.4
2022-10-31T19:26:49.808Z,21.2
2022-10-31T19:28:50.302Z,21.2
2022-10-31T19:30:49.753Z,22.0
2022-10-31T19:32:50.294Z,21.7
2022-10-31T19:34:50.451Z,20.7
2022-10-31T19:36:50.440Z,21.2
2022-10-31T19:38:49.926Z,22.7
2022-10-31T19:40:50.528Z,22.1
2022-10-31T19:42:49.978Z,21.2
2022-10-31T19:44:50.526Z,21.2
2022-10-31T19:46:54.450Z,20.9
2022-10-31T19:48:50.008Z,21.1
2022-10-31T19:50:57.706Z,21.3
2022-10-31T19:52:50.130Z,21.3
2022-10-31T19:54:50.535Z,21.1
2022-10-31T19:56:50.505Z,21.6
2022-10-31T19:58:49.869Z,21.1
2022-10-31T20:00:50.417Z,20.3
2022-10-31T20:02:50.365Z,20.3
2022-10-31T20:04:50.407Z,19.1
2022-10-31T20:06:50.287Z,19.1
2022-10-31T20:08:49.712Z,18.0
2022-10-31T20:10:50.204Z,17.4
2022-10-31T20:12:50.575Z,17.4
2022-10-31T20:14:50.255Z,17.4
2022-10-31T20:16:50.109Z,16.3
2022-10-31T20:18:49.877Z,16.2
2022-10-31T20:20:50.558Z,16.1
2022-10-31T20:22:50.119Z,16.6
2022-10-31T20:24:50.630Z,16.6
2022-10-31T20:26:50.268Z,15.6
2022-10-31T20:28:49.761Z,16.2
2022-10-31T20:30:50.176Z,16.2
2022-10-31T20:32:50.373Z,16.2
2022-10-31T20:34:50.216Z,15.7
2022-10-31T20:36:50.107Z,15.4
2022-10-31T20:38:50.529Z,16.5
2022-10-31T20:40:50.016Z,16.5
2022-10-31T20:42:50.568Z,17.7
2022-10-31T20:44:50.125Z,17.9
2022-10-31T20:46:49.912Z,17.4
2022-10-31T20:48:50.405Z,18.0
2022-10-31T20:50:49.911Z,18.0
2022-10-31T20:52:50.498Z,17.3
2022-10-31T20:54:49.956Z,17.8
2022-10-31T20:56:49.837Z,19.7
2022-10-31T20:58:50.166Z,18.7
2022-10-31T21:00:50.712Z,18.7
2022-10-31T21:02:49.782Z,20.0
2022-10-31T21:04:49.759Z,20.0
2022-10-31T21:06:50.627Z,21.1
2022-10-31T21:08:50.198Z,21.1
2022-10-31T21:10:49.826Z,18.7
2022-10-31T21:12:50.231Z,18.6
2022-10-31T21:14:49.933Z,19.4
2022-10-31T21:16:49.775Z,18.8
2022-10-31T21:18:50.301Z,18.8
2022-10-31T21:20:49.692Z,19.1
2022-10-31T21:22:50.152Z,18.6
2022-10-31T21:24:50.604Z,18.7
2022-10-31T21:26:50.510Z,18.8
2022-10-31T21:28:50.062Z,18.8
2022-10-31T21:30:50.507Z,18.8
2022-10-31T21:32:50.051Z,19.0
2022-10-31T21:34:49.837Z,18.7
2022-10-31T21:36:50.626Z,19.4
2022-10-31T21:38:50.100Z,19.4
2022-10-31T21:40:50.652Z,18.6
2022-10-31T21:42:50.167Z,18.1
2022-10-31T21:44:49.713Z,17.9
2022-10-31T21:46:50.502Z,17.7
2022-10-31T21:48:50.061Z,17.7
2022-10-31T21:50:50.521Z,17.8
2022-10-31T21:52:50.188Z,17.4
2022-10-31T21:54:50.643Z,17.4
2022-10-31T21:56:50.621Z,17.6
2022-10-31T21:58:50.038Z,17.6
2022-10-31T22:00:50.727Z,18.3
2022-10-31T22:02:50.621Z,16.9
2022-10-31T22:04:50.651Z,17.1
2022-10-31T22:06:49.791Z,17.1
2022-10-31T22:08:50.400Z,17.6
2022-10-31T22:10:49.981Z,17.4
2022-10-31T22:12:50.554Z,17.7
2022-10-31T22:14:50.006Z,17.0
2022-10-31T22:16:49.905Z,17.0
2022-10-31T22:18:50.306Z,17.5
2022-10-31T22:20:49.966Z,18.3
2022-10-31T22:22:50.694Z,19.5
2022-10-31T22:24:50.147Z,18.5
2022-10-31T22:26:49.995Z,18.5
2022-10-31T22:28:50.566Z,18.5
2022-10-31T22:30:50.054Z,17.7
2022-10-31T22:32:50.539Z,18.1
2022-10-31T22:34:50.474Z,16.9
2022-10-31T22:36:50.289Z,16.9
2022-10-31T22:38:49.714Z,16.6
2022-10-31T22:40:50.186Z,16.6
2022-10-31T22:42:49.696Z,15.6
2022-10-31T22:44:50.262Z,15.2
2022-10-31T22:46:50.092Z,15.2
2022-10-31T22:48:50.579Z,15.9
2022-10-31T22:50:50.094Z,16.1
2022-10-31T22:52:50.528Z,15.4
2022-10-31T22:54:50.655Z,15.2
2022-10-31T22:56:50.009Z,17.4
2022-10-31T22:58:50.592Z,17.4
2022-10-31T23:00:50.401Z,17.9
2022-10-31T23:02:50.123Z,16.9
2022-10-31T23:04:50.004Z,17.2
2022-10-31T23:06:49.938Z,17.2
2022-10-31T23:08:50.462Z,16.2
2022-10-31T23:10:49.997Z,17.6
2022-10-31T23:12:50.492Z,17.5
2022-10-31T23:14:50.007Z,17.5
2022-10-31T23:16:49.965Z,17.3
2022-10-31T23:18:50.873Z,16.0
2022-10-31T23:20:50.314Z,16.4
2022-10-31T23:22:49.735Z,15.9
2022-10-31T23:24:50.349Z,15.9
2022-10-31T23:26:50.115Z,16.1
2022-10-31T23:28:50.644Z,15.3
2022-10-31T23:30:50.162Z,16.2
2022-10-31T23:32:49.679Z,15.7
2022-10-31T23:34:50.618Z,15.7
2022-10-31T23:36:50.537Z,16.0
2022-10-31T23:38:49.927Z,15.1
2022-10-31T23:40:50.460Z,14.8
2022-10-31T23:42:49.896Z,14.8
2022-10-31T23:44:50.488Z,16.6
2022-10-31T23:46:50.346Z,15.7
2022-10-31T23:48:49.866Z,15.7
2022-10-31T23:50:50.343Z,16.3
2022-10-31T23:52:49.809Z,16.3
2022-10-31T23:54:50.264Z,15.5
2022-10-31T23:56:50.103Z,15.5
2022-10-31T23:58:50.475Z,15.1
